Terminal Aerodrome Forecast
Issued by NWS

Home | Current Version | Previous Version | Text Only | Print | Product List | Glossary On
Versions: 1 2 3 4 5 6 7 8 9 10 11 12 13 14 15 16 17 18 19 20 21 22 23 24 25 26 27
000
FTUS43 KLSX 080530
TAFSUS
TAF
KSUS 080530Z 0806/0906 VRB03KT 5SM -RA BR SCT015 OVC025
      TEMPO 0806/0810 2SM -RA BR SCT007 BKN015
     FM081200 09006KT 5SM -SHRA BR SCT009 OVC015
     FM081600 09014KT 3SM -SHRA BR VCTS SCT005CB OVC015
     FM090000 20008KT 4SM -RA BR OVC005=

USA.gov is the U.S. government's official web portal to all federal, state and local government web resources and services.